createdAt,value
2019-01-02T00:00:18.511Z,96158.7
2019-01-02T00:01:21.585Z,96156.7
2019-01-02T00:02:24.040Z,96165
2019-01-02T00:03:27.466Z,96158.5
2019-01-02T00:04:30.433Z,96153.4
2019-01-02T00:05:32.583Z,96161.9
2019-01-02T00:06:35.787Z,96158.1
2019-01-02T00:07:38.794Z,96152.1
2019-01-02T00:08:40.713Z,96152.4
2019-01-02T00:09:43.895Z,96151.9
2019-01-02T00:10:46.632Z,96150.3
2019-01-02T00:11:49.058Z,96153
2019-01-02T00:12:52.522Z,96145.9
2019-01-02T00:13:55.539Z,96145.7
2019-01-02T00:14:57.439Z,96145
2019-01-02T00:16:00.372Z,96146
2019-01-02T00:17:03.483Z,96150.4
2019-01-02T00:18:05.927Z,96151.8
2019-01-02T00:19:09.385Z,96156.2
2019-01-02T00:20:12.275Z,96157.1
2019-01-02T00:21:14.710Z,96159.2
2019-01-02T00:22:17.659Z,96153.5
2019-01-02T00:23:20.634Z,96158.2
2019-01-02T00:24:22.796Z,96161.2
2019-01-02T00:25:25.238Z,96162.8
2019-01-02T00:26:27.989Z,96160.4
2019-01-02T00:27:30.151Z,96161.5
2019-01-02T00:28:32.014Z,96163.3
2019-01-02T00:29:34.440Z,96161
2019-01-02T00:30:37.825Z,96157.6
2019-01-02T00:31:40.412Z,96170
2019-01-02T00:32:42.842Z,96167.1
2019-01-02T00:33:46.150Z,96169.6
2019-01-02T00:34:49.207Z,96177.1
2019-01-02T00:35:51.650Z,96185.5
2019-01-02T00:36:54.414Z,96178.4
2019-01-02T00:37:57.347Z,96171.5
2019-01-02T00:38:59.763Z,96178.4
2019-01-02T00:40:02.937Z,96181
2019-01-02T00:41:05.805Z,96185.5
2019-01-02T00:42:08.229Z,96185.3
2019-01-02T00:43:10.654Z,96177.8
2019-01-02T00:44:12.249Z,96181.9
2019-01-02T00:45:15.375Z,96182.9
2019-01-02T00:46:22.644Z,96192.4
2019-01-02T00:47:25.070Z,96194.5
2019-01-02T00:48:28.077Z,96195.3
2019-01-02T00:49:30.870Z,96193
2019-01-02T00:50:33.332Z,96198.7
2019-01-02T00:51:36.212Z,96202
2019-01-02T00:52:39.034Z,96201.7
2019-01-02T00:53:41.471Z,96204.2
2019-01-02T00:54:44.672Z,96193.3
2019-01-02T00:55:47.752Z,96195.5
2019-01-02T00:56:51.018Z,96198.8
2019-01-02T00:57:54.185Z,96203.5
2019-01-02T00:58:56.344Z,96200.7
2019-01-02T00:59:59.218Z,96201.4
2019-01-02T01:01:02.238Z,96204.8
2019-01-02T01:02:04.380Z,96201.2
2019-01-02T01:03:07.803Z,96206.8
2019-01-02T01:04:10.902Z,96204.7
2019-01-02T01:05:14.027Z,96201.8
2019-01-02T01:06:16.786Z,96202.3
2019-01-02T01:07:18.947Z,96202.7
2019-01-02T01:08:22.380Z,96203.7
2019-01-02T01:09:25.072Z,96205.5
2019-01-02T01:10:27.502Z,96212.5
2019-01-02T01:11:30.307Z,96220
2019-01-02T01:12:33.294Z,96216.1
2019-01-02T01:13:36.750Z,96214.1
2019-01-02T01:14:39.445Z,96214.9
2019-01-02T01:15:41.870Z,96215.2
2019-01-02T01:16:44.825Z,96217.7
2019-01-02T01:17:47.603Z,96209.3
2019-01-02T01:18:50.043Z,96204.9
2019-01-02T01:19:53.200Z,96223.8
2019-01-02T01:20:55.739Z,96218
2019-01-02T01:21:58.185Z,96220.8
2019-01-02T01:23:01.011Z,96223.3
2019-01-02T01:24:03.674Z,96228.8
2019-01-02T01:25:06.122Z,96225.1
2019-01-02T01:26:09.511Z,96222.2
2019-01-02T01:27:12.504Z,96218.8
2019-01-02T01:28:14.938Z,96225.2
2019-01-02T01:29:17.868Z,96232.3
2019-01-02T01:30:20.774Z,96224.5
2019-01-02T01:31:23.200Z,96224.5
2019-01-02T01:32:26.687Z,96214.3
2019-01-02T01:33:29.675Z,96208.7
2019-01-02T01:34:31.828Z,96213.1
2019-01-02T01:35:33.981Z,96222.9
2019-01-02T01:36:36.416Z,96217.1
2019-01-02T01:37:39.541Z,96224.6
2019-01-02T01:38:41.965Z,96221.1
2019-01-02T01:39:45.290Z,96223.8
2019-01-02T01:40:47.765Z,96223.2
2019-01-02T01:41:50.187Z,96225
2019-01-02T01:42:53.639Z,96217.4
2019-01-02T01:43:55.824Z,96219.5
2019-01-02T01:44:57.697Z,96209.4
2019-01-02T01:46:00.557Z,96209.6
2019-01-02T01:47:03.349Z,96204.4
2019-01-02T01:48:05.495Z,96211.5
2019-01-02T01:49:08.267Z,96202.8
2019-01-02T01:50:11.130Z,96208.6
2019-01-02T01:51:13.559Z,96202.3
2019-01-02T01:52:16.475Z,96202.4
2019-01-02T01:53:19.306Z,96198.5
2019-01-02T01:54:21.741Z,96207.5
2019-01-02T01:55:25.019Z,96203.9
2019-01-02T01:56:27.702Z,96208.8
2019-01-02T01:57:29.838Z,96211.8
2019-01-02T01:58:32.374Z,96217.3
2019-01-02T01:59:35.364Z,96217.9
2019-01-02T02:00:37.806Z,96219.5
2019-01-02T02:01:40.862Z,96220.8
2019-01-02T02:02:43.634Z,96215.6
2019-01-02T02:03:45.502Z,96216.5
2019-01-02T02:04:47.937Z,96215.8
2019-01-02T02:05:50.918Z,96218.7
2019-01-02T02:06:53.580Z,96231
2019-01-02T02:07:55.752Z,96224.6
2019-01-02T02:08:59.200Z,96222.9
2019-01-02T02:10:01.834Z,96223.3
2019-01-02T02:11:03.996Z,96231.2
2019-01-02T02:12:07.084Z,96230.9
2019-01-02T02:13:09.931Z,96240.2
2019-01-02T02:14:12.098Z,96236.8
2019-01-02T02:15:15.440Z,96249.9
2019-01-02T02:16:18.098Z,96247.7
2019-01-02T02:17:20.259Z,96249.9
2019-01-02T02:18:23.456Z,96253.1
2019-01-02T02:19:25.618Z,96246.2
2019-01-02T02:20:27.772Z,96249.1
2019-01-02T02:21:31.069Z,96249.2
2019-01-02T02:22:34.190Z,96250.5
2019-01-02T02:23:36.621Z,96252.9
2019-01-02T02:24:39.811Z,96246.2
2019-01-02T02:25:42.222Z,96250.5
2019-01-02T02:26:44.684Z,96249.6
2019-01-02T02:27:48.144Z,96254.7
2019-01-02T02:28:50.933Z,96253.6
2019-01-02T02:29:52.790Z,96248.6
2019-01-02T02:30:55.472Z,96250.4
2019-01-02T02:31:58.576Z,96251
2019-01-02T02:33:00.745Z,96250.1
2019-01-02T02:34:04.009Z,96245.4
2019-01-02T02:35:06.541Z,96247.6
2019-01-02T02:36:09.768Z,96252.5
2019-01-02T02:37:11.926Z,96261.4
2019-01-02T02:38:14.969Z,96262.6
2019-01-02T02:39:18.442Z,96268.6
2019-01-02T02:40:20.984Z,96268.4
2019-01-02T02:41:24.523Z,96272.9
2019-01-02T02:42:27.727Z,96266.9
2019-01-02T02:43:30.783Z,96269
2019-01-02T02:44:34.156Z,96273.9
2019-01-02T02:45:37.855Z,96266.7
2019-01-02T02:46:40.572Z,96279.6
2019-01-02T02:47:44.034Z,96276.8
2019-01-02T02:48:48.083Z,96275.3
2019-01-02T02:49:50.754Z,96278.7
2019-01-02T02:50:53.976Z,96288.3
2019-01-02T02:51:56.401Z,96280.5
2019-01-02T02:52:59.582Z,96277.3
2019-01-02T02:54:03.182Z,96276.7
2019-01-02T02:55:05.704Z,96276.8
2019-01-02T02:56:08.955Z,96277
2019-01-02T02:57:11.805Z,96281.1
2019-01-02T02:58:14.970Z,96276.3
2019-01-02T02:59:18.854Z,96285.1
2019-01-02T03:00:21.879Z,96291.4
2019-01-02T03:01:24.606Z,96283.3
2019-01-02T03:02:27.644Z,96286.4
2019-01-02T03:03:30.070Z,96290.1
2019-01-02T03:04:33.007Z,96286.9
2019-01-02T03:05:36.003Z,96284.7
2019-01-02T03:06:39.314Z,96298.3
2019-01-02T03:07:43.254Z,96309.9
2019-01-02T03:08:46.102Z,96309.8
2019-01-02T03:09:49.310Z,96280.8
2019-01-02T03:10:53.272Z,96291.6
2019-01-02T03:11:56.461Z,96280.3
2019-01-02T03:12:59.580Z,96289
2019-01-02T03:14:03.054Z,96294.4
2019-01-02T03:15:05.788Z,96296.2
2019-01-02T03:16:09.004Z,96299
2019-01-02T03:17:12.656Z,96301.5
2019-01-02T03:18:15.710Z,96300.8
2019-01-02T03:19:19.230Z,96302.4
2019-01-02T03:20:21.926Z,96306.1
2019-01-02T03:21:24.995Z,96306.7
2019-01-02T03:22:28.904Z,96303.7
2019-01-02T03:23:31.922Z,96305.4
2019-01-02T03:24:35.000Z,96304.3
2019-01-02T03:25:38.715Z,96306.9
2019-01-02T03:26:41.480Z,96301.1
2019-01-02T03:27:44.584Z,96305.7
2019-01-02T03:28:48.531Z,96304.7
2019-01-02T03:29:51.273Z,96308
2019-01-02T03:30:54.148Z,96303.5
2019-01-02T03:31:57.876Z,96296.7
2019-01-02T03:33:00.954Z,96298.5
2019-01-02T03:34:03.390Z,96299.4
2019-01-02T03:35:05.836Z,96304.9
2019-01-02T03:36:08.252Z,96303.8
2019-01-02T03:37:10.392Z,96302.2
2019-01-02T03:38:12.043Z,96303.8
2019-01-02T03:39:13.930Z,96297.8
2019-01-02T03:40:16.348Z,96300
2019-01-02T03:41:18.231Z,96306
2019-01-02T03:42:20.415Z,96307.8
2019-01-02T03:43:22.311Z,96303.2
2019-01-02T03:44:24.742Z,96304.9
2019-01-02T03:45:26.632Z,96314.6
2019-01-02T03:46:28.774Z,96300
2019-01-02T03:47:30.938Z,96322.4
2019-01-02T03:48:33.368Z,96314.6
2019-01-02T03:49:35.800Z,96305.7
2019-01-02T03:50:38.228Z,96318.5
2019-01-02T03:51:40.654Z,96315
2019-01-02T03:52:43.083Z,96312.7
2019-01-02T03:53:45.244Z,96321.6
2019-01-02T03:54:47.675Z,96322.8
2019-01-02T03:55:50.094Z,96326.9
2019-01-02T03:56:52.531Z,96330.2
2019-01-02T03:57:54.429Z,96333.5
2019-01-02T03:58:56.618Z,96339.7
2019-01-02T03:59:59.031Z,96340.9
2019-01-02T04:01:01.454Z,96343.8
2019-01-02T04:02:03.600Z,96351.1
2019-01-02T04:03:06.033Z,96347.2
2019-01-02T04:04:08.174Z,96333.9
2019-01-02T04:05:10.342Z,96335.4
2019-01-02T04:06:12.493Z,96326.9
2019-01-02T04:07:14.684Z,96329.1
2019-01-02T04:08:16.871Z,96323.7
2019-01-02T04:09:19.293Z,96330.4
2019-01-02T04:10:21.726Z,96326.5
2019-01-02T04:11:23.871Z,96335.1
2019-01-02T04:12:26.302Z,96328.3
2019-01-02T04:13:28.737Z,96332.1
2019-01-02T04:14:30.908Z,96332.1
2019-01-02T04:15:32.803Z,96333.8
2019-01-02T04:16:35.233Z,96336.7
2019-01-02T04:17:37.385Z,96332.5
2019-01-02T04:18:39.802Z,96332.3
2019-01-02T04:19:42.243Z,96339.8
2019-01-02T04:20:44.663Z,96336.7
2019-01-02T04:21:46.811Z,96338.7
2019-01-02T04:22:48.695Z,96335.9
2019-01-02T04:23:50.864Z,96341
2019-01-02T04:24:53.028Z,96335.4
2019-01-02T04:25:54.910Z,96331.1
2019-01-02T04:26:57.026Z,96328.1
2019-01-02T04:27:58.911Z,96335.5
2019-01-02T04:29:01.081Z,96330.5
2019-01-02T04:30:02.964Z,96336.5
2019-01-02T04:31:04.852Z,96333.4
2019-01-02T04:32:07.282Z,96340.9
2019-01-02T04:33:09.443Z,96340.3
2019-01-02T04:34:11.893Z,96351.1
2019-01-02T04:35:14.058Z,96355.7
2019-01-02T04:36:16.513Z,96352
2019-01-02T04:37:18.665Z,96351.6
2019-01-02T04:38:20.811Z,96355.6
2019-01-02T04:39:22.969Z,96356.8
2019-01-02T04:40:25.389Z,96359.1
2019-01-02T04:41:27.519Z,96361.3
2019-01-02T04:42:29.113Z,96357.8
2019-01-02T04:43:31.601Z,96358.7
2019-01-02T04:44:34.097Z,96358.3
2019-01-02T04:45:36.286Z,96362.5
2019-01-02T04:46:38.717Z,96358
2019-01-02T04:47:41.174Z,96362.4
2019-01-02T04:48:43.611Z,96363.1
2019-01-02T04:49:45.801Z,96358
2019-01-02T04:50:47.993Z,96360.4
2019-01-02T04:51:49.906Z,96362.3
2019-01-02T04:52:52.337Z,96373.2
2019-01-02T04:53:54.791Z,96373.3
2019-01-02T04:54:57.241Z,96382.4
2019-01-02T04:55:59.147Z,96378.6
2019-01-02T04:57:01.335Z,96374.9
2019-01-02T04:58:03.247Z,96358.9
2019-01-02T04:59:05.438Z,96355.5
2019-01-02T05:00:07.862Z,96347.9
2019-01-02T05:01:10.284Z,96347.5
2019-01-02T05:02:12.462Z,96342.5
2019-01-02T05:03:14.906Z,96340.9
2019-01-02T05:04:17.335Z,96339.7
2019-01-02T05:05:19.503Z,96341.7
2019-01-02T05:06:21.661Z,96341
2019-01-02T05:07:23.525Z,96345.3
2019-01-02T05:08:25.954Z,96344.1
2019-01-02T05:09:28.375Z,96345.9
2019-01-02T05:10:30.268Z,96351.4
2019-01-02T05:11:32.694Z,96345.2
2019-01-02T05:12:34.599Z,96351.9
2019-01-02T05:13:36.731Z,96352.9
2019-01-02T05:14:39.165Z,96360.2
2019-01-02T05:15:41.324Z,96367.9
2019-01-02T05:16:43.463Z,96376.6
2019-01-02T05:17:45.621Z,96371
2019-01-02T05:18:47.776Z,96372.5
2019-01-02T05:19:50.216Z,96366.8
2019-01-02T05:20:52.651Z,96359.3
2019-01-02T05:21:55.082Z,96353.7
2019-01-02T05:22:57.259Z,96359.9
2019-01-02T05:23:59.681Z,96364.3
2019-01-02T05:25:02.121Z,96370.5
2019-01-02T05:26:04.273Z,96371.4
2019-01-02T05:27:06.714Z,96375.9
2019-01-02T05:28:09.165Z,96372.4
2019-01-02T05:29:11.583Z,96379.5
2019-01-02T05:30:13.722Z,96378.7
2019-01-02T05:31:16.163Z,96381
2019-01-02T05:32:18.612Z,96377.8
2019-01-02T05:33:20.766Z,96381.8
2019-01-02T05:34:22.923Z,96379.9
2019-01-02T05:35:25.347Z,96382.7
2019-01-02T05:36:27.775Z,96381.3
2019-01-02T05:37:29.953Z,96380.9
2019-01-02T05:38:32.117Z,96389.6
2019-01-02T05:39:34.261Z,96391
2019-01-02T05:40:36.693Z,96384
2019-01-02T05:41:39.149Z,96384.7
2019-01-02T05:42:41.618Z,96384.3
2019-01-02T05:43:44.067Z,96386.6
2019-01-02T05:44:46.492Z,96387.5
2019-01-02T05:45:48.939Z,96382.2
2019-01-02T05:46:51.100Z,96388.4
2019-01-02T05:47:53.230Z,96387.4
2019-01-02T05:48:55.119Z,96381.8
2019-01-02T05:49:57.301Z,96392.3
2019-01-02T05:50:59.724Z,96388.7
2019-01-02T05:52:02.135Z,96385.4
2019-01-02T05:53:04.594Z,96384.7
2019-01-02T05:54:06.479Z,96378.3
2019-01-02T05:55:08.633Z,96385.2
2019-01-02T05:56:10.794Z,96389.2
2019-01-02T05:57:13.255Z,96389.8
2019-01-02T05:58:15.133Z,96389.3
2019-01-02T05:59:17.343Z,96392.9
2019-01-02T06:00:18.958Z,96393.7
2019-01-02T06:01:21.132Z,96397.3
2019-01-02T06:02:23.032Z,96394.9
2019-01-02T06:03:25.460Z,96399.5
2019-01-02T06:04:27.625Z,96397.2
2019-01-02T06:05:29.198Z,96404.9
2019-01-02T06:06:31.630Z,96405.2
2019-01-02T06:07:34.053Z,96402.2
2019-01-02T06:08:36.213Z,96400.9
2019-01-02T06:09:38.642Z,96402
2019-01-02T06:10:41.078Z,96402.6
2019-01-02T06:11:42.944Z,96394.5
2019-01-02T06:12:45.106Z,96394.6
2019-01-02T06:13:47.255Z,96389.7
2019-01-02T06:14:49.712Z,96392.6
2019-01-02T06:15:52.160Z,96395
2019-01-02T06:16:54.316Z,96390.6
2019-01-02T06:17:56.732Z,96391.3
2019-01-02T06:18:59.172Z,96386.5
2019-01-02T06:20:01.601Z,96392.5
2019-01-02T06:21:04.073Z,96383.1
2019-01-02T06:22:06.524Z,96387.2
2019-01-02T06:23:08.944Z,96381.9
2019-01-02T06:24:11.368Z,96381.5
2019-01-02T06:25:13.525Z,96383.9
2019-01-02T06:26:15.937Z,96384.2
2019-01-02T06:27:17.804Z,96382.7
2019-01-02T06:28:20.252Z,96384.5
2019-01-02T06:29:22.710Z,96384.3
2019-01-02T06:30:24.862Z,96375.3
2019-01-02T06:31:27.278Z,96380.1
2019-01-02T06:32:29.432Z,96379
2019-01-02T06:33:31.857Z,96383.3
2019-01-02T06:34:33.751Z,96381.1
2019-01-02T06:35:35.631Z,96384.4
2019-01-02T06:36:37.792Z,96382.3
2019-01-02T06:37:40.225Z,96384
2019-01-02T06:38:42.685Z,96389.9
2019-01-02T06:39:45.113Z,96388.3
2019-01-02T06:40:47.272Z,96388.8
2019-01-02T06:41:49.709Z,96381.9
2019-01-02T06:42:52.145Z,96380.3
2019-01-02T06:43:54.315Z,96380.8
2019-01-02T06:44:56.465Z,96375.9
2019-01-02T06:45:58.603Z,96379.8
2019-01-02T06:47:01.033Z,96374.9
2019-01-02T06:48:03.493Z,96370.9
2019-01-02T06:49:05.634Z,96374.3
2019-01-02T06:50:08.063Z,96377.1
2019-01-02T06:51:10.206Z,96381.2
2019-01-02T06:52:12.633Z,96382.5
2019-01-02T06:53:15.057Z,96374.2
2019-01-02T06:54:17.188Z,96372.1
2019-01-02T06:55:19.372Z,96377.3
2019-01-02T06:56:21.790Z,96379.5
2019-01-02T06:57:23.951Z,96380.7
2019-01-02T06:58:26.377Z,96383.6
2019-01-02T06:59:28.801Z,96382.4
2019-01-02T07:00:30.655Z,96383.9
2019-01-02T07:01:33.082Z,96384.9
2019-01-02T07:02:35.240Z,96386.6
2019-01-02T07:03:37.674Z,96381.9
2019-01-02T07:04:40.133Z,96387.3
2019-01-02T07:05:42.028Z,96384.9
2019-01-02T07:06:44.200Z,96382.8
2019-01-02T07:07:46.616Z,96387.8
2019-01-02T07:08:49.057Z,96387.4
2019-01-02T07:09:51.484Z,96381.9
2019-01-02T07:10:53.630Z,96382.6
2019-01-02T07:11:55.785Z,96386.6
2019-01-02T07:12:58.223Z,96384.7
2019-01-02T07:14:00.641Z,96386
2019-01-02T07:15:02.816Z,96385.3
2019-01-02T07:16:05.240Z,96384
2019-01-02T07:17:07.669Z,96384.6
2019-01-02T07:18:10.093Z,96383.5
2019-01-02T07:19:12.234Z,96387.1
2019-01-02T07:20:14.702Z,96390.8
2019-01-02T07:21:16.837Z,96396.2
2019-01-02T07:22:19.265Z,96391.2
2019-01-02T07:23:21.687Z,96391.6
2019-01-02T07:24:24.119Z,96393.8
2019-01-02T07:25:26.563Z,96405.3
2019-01-02T07:26:28.736Z,96408.6
2019-01-02T07:27:30.862Z,96401.7
2019-01-02T07:28:32.761Z,96402.7
2019-01-02T07:29:35.192Z,96400.4
2019-01-02T07:30:37.652Z,96399.7
2019-01-02T07:31:39.850Z,96403.1
2019-01-02T07:32:42.282Z,96402.5
2019-01-02T07:33:44.147Z,96406.6
2019-01-02T07:34:46.575Z,96405.3
2019-01-02T07:35:48.736Z,96399.4
2019-01-02T07:36:50.871Z,96405.9
2019-01-02T07:37:53.004Z,96404
2019-01-02T07:38:55.426Z,96409.3
2019-01-02T07:39:57.575Z,96409.4
2019-01-02T07:41:00.006Z,96411.5
2019-01-02T07:42:02.425Z,96401.2
2019-01-02T07:43:04.877Z,96401.8
2019-01-02T07:44:07.026Z,96403.9
2019-01-02T07:45:09.175Z,96408.6
2019-01-02T07:46:11.344Z,96405
2019-01-02T07:47:13.503Z,96408
2019-01-02T07:48:15.952Z,96402.5
2019-01-02T07:49:18.116Z,96406.1
2019-01-02T07:50:20.547Z,96405
2019-01-02T07:51:22.692Z,96404.8
2019-01-02T07:52:25.137Z,96409.9
2019-01-02T07:53:27.585Z,96408.8
2019-01-02T07:54:30.013Z,96416.2
2019-01-02T07:55:32.442Z,96418.9
2019-01-02T07:56:34.881Z,96413.1
2019-01-02T07:57:37.322Z,96419.6
2019-01-02T07:58:39.755Z,96427.2
2019-01-02T07:59:41.894Z,96428.5
2019-01-02T08:00:43.756Z,96437.4
2019-01-02T08:01:45.923Z,96433.1
2019-01-02T08:02:48.357Z,96431.9
2019-01-02T08:03:50.633Z,96432.5
2019-01-02T08:04:54.168Z,96424.3
2019-01-02T08:05:56.333Z,96431
2019-01-02T08:06:58.492Z,96427.8
2019-01-02T08:08:00.636Z,96427.4
2019-01-02T08:09:02.786Z,96430
2019-01-02T08:10:04.672Z,96426.5
2019-01-02T08:11:07.112Z,96429.9
2019-01-02T08:12:09.534Z,96432.4
2019-01-02T08:13:11.960Z,96425.9
2019-01-02T08:14:14.425Z,96427.9
2019-01-02T08:15:16.579Z,96427.8
2019-01-02T08:16:19.013Z,96435.4
2019-01-02T08:17:21.189Z,96439.2
2019-01-02T08:18:23.636Z,96447.7
2019-01-02T08:19:26.092Z,96441.3
2019-01-02T08:20:28.287Z,96440.2
2019-01-02T08:21:30.705Z,96447.7
2019-01-02T08:22:33.130Z,96437.8
2019-01-02T08:23:35.305Z,96440.8
2019-01-02T08:24:37.195Z,96433.8
2019-01-02T08:25:39.347Z,96440.9
2019-01-02T08:26:41.775Z,96441.4
2019-01-02T08:27:43.933Z,96446.5
2019-01-02T08:28:46.374Z,96449.4
2019-01-02T08:29:48.277Z,96444.4
2019-01-02T08:30:50.176Z,96450
2019-01-02T08:31:52.608Z,96450.6
2019-01-02T08:32:55.054Z,96445.4
2019-01-02T08:33:57.216Z,96441.4
2019-01-02T08:34:59.093Z,96439.7
2019-01-02T08:36:01.519Z,96450.6
2019-01-02T08:37:03.950Z,96447
2019-01-02T08:38:06.126Z,96450.3
2019-01-02T08:39:08.008Z,96450.7
2019-01-02T08:40:10.180Z,96448
2019-01-02T08:41:12.050Z,96455.7
2019-01-02T08:42:14.213Z,96447.4
2019-01-02T08:43:16.634Z,96450.5
2019-01-02T08:44:19.056Z,96453
2019-01-02T08:45:21.193Z,96453.6
2019-01-02T08:46:23.367Z,96456.4
2019-01-02T08:47:25.516Z,96448
2019-01-02T08:48:27.934Z,96446
2019-01-02T08:49:29.816Z,96451.2
2019-01-02T08:50:32.265Z,96452.4
2019-01-02T08:51:34.691Z,96459.7
2019-01-02T08:52:37.115Z,96464.9
2019-01-02T08:53:39.557Z,96460
2019-01-02T08:54:42.005Z,96457.4
2019-01-02T08:55:44.429Z,96460.6
2019-01-02T08:56:46.862Z,96460.7
2019-01-02T08:57:49.014Z,96452.7
2019-01-02T08:58:51.456Z,96462
2019-01-02T08:59:53.619Z,96457.7
2019-01-02T09:00:56.055Z,96467.8
2019-01-02T09:01:58.217Z,96469.6
2019-01-02T09:03:00.086Z,96476.8
2019-01-02T09:04:02.525Z,96477.2
2019-01-02T09:05:04.954Z,96481.1
2019-01-02T09:06:07.434Z,96487.9
2019-01-02T09:07:09.567Z,96488.2
2019-01-02T09:08:11.717Z,96496.1
2019-01-02T09:09:13.842Z,96494.7
2019-01-02T09:10:16.005Z,96490.4
2019-01-02T09:11:18.457Z,96499.6
2019-01-02T09:12:20.669Z,96484.6
2019-01-02T09:13:23.127Z,96489.9
2019-01-02T09:14:25.293Z,96488.9
2019-01-02T09:15:27.733Z,96493.2
2019-01-02T09:16:29.931Z,96494.4
2019-01-02T09:17:32.109Z,96496.4
2019-01-02T09:18:34.534Z,96498.8
2019-01-02T09:19:36.980Z,96496.9
2019-01-02T09:20:38.869Z,96497.5
2019-01-02T09:21:41.292Z,96501.5
2019-01-02T09:22:43.716Z,96498.2
2019-01-02T09:23:45.635Z,96494.8
2019-01-02T09:24:47.540Z,96499.4
2019-01-02T09:25:49.698Z,96498.6
2019-01-02T09:26:51.866Z,96499.8
2019-01-02T09:27:54.304Z,96499.4
2019-01-02T09:28:56.213Z,96501.9
2019-01-02T09:29:58.641Z,96505.3
2019-01-02T09:31:00.791Z,96502.2
2019-01-02T09:32:02.973Z,96507.6
2019-01-02T09:33:05.146Z,96499.6
2019-01-02T09:34:07.568Z,96498.4
2019-01-02T09:35:09.734Z,96502.2
2019-01-02T09:36:11.624Z,96498.6
2019-01-02T09:37:14.046Z,96502.1
2019-01-02T09:38:16.203Z,96498.6
2019-01-02T09:39:18.645Z,96504.5
2019-01-02T09:40:20.519Z,96501.7
2019-01-02T09:41:22.962Z,96495.2
2019-01-02T09:42:25.115Z,96497.8
2019-01-02T09:43:27.252Z,96497.1
2019-01-02T09:44:29.421Z,96501
2019-01-02T09:45:31.569Z,96504.8
2019-01-02T09:46:33.974Z,96503.9
2019-01-02T09:47:36.565Z,96499.8
2019-01-02T09:48:38.711Z,96502
2019-01-02T09:49:40.892Z,96499.7
2019-01-02T09:50:43.342Z,96497.5
2019-01-02T09:51:45.505Z,96499.7
2019-01-02T09:52:47.938Z,96497.1
2019-01-02T09:53:50.377Z,96498.3
2019-01-02T09:54:52.523Z,96502.9
2019-01-02T09:55:54.981Z,96503.7
2019-01-02T09:56:57.138Z,96500.6
2019-01-02T09:57:59.295Z,96510.6
2019-01-02T09:59:01.478Z,96507.3
2019-01-02T10:00:03.921Z,96506.6
2019-01-02T10:01:06.346Z,96502.4
2019-01-02T10:02:08.509Z,96495.6
2019-01-02T10:03:10.665Z,96502.6
2019-01-02T10:04:12.826Z,96509.3
2019-01-02T10:05:14.994Z,96506.6
2019-01-02T10:06:16.892Z,96507.1
2019-01-02T10:07:19.315Z,96509.3
2019-01-02T10:08:21.735Z,96511
2019-01-02T10:09:23.599Z,96504.5
2019-01-02T10:10:26.014Z,96512.8
2019-01-02T10:11:28.448Z,96507.5
2019-01-02T10:12:30.875Z,96504.5
2019-01-02T10:13:33.052Z,96508.3
2019-01-02T10:14:35.220Z,96495.9
2019-01-02T10:15:37.406Z,96511.6
2019-01-02T10:16:39.832Z,96501.8
2019-01-02T10:17:42.021Z,96504
2019-01-02T10:18:44.438Z,96508.7
2019-01-02T10:19:46.594Z,96506.4
2019-01-02T10:20:48.455Z,96505.5
2019-01-02T10:21:50.873Z,96506.2
2019-01-02T10:22:52.750Z,96506.9
2019-01-02T10:23:54.906Z,96508.2
2019-01-02T10:24:57.336Z,96506.9
2019-01-02T10:25:59.502Z,96505.8
2019-01-02T10:27:01.945Z,96505.8
2019-01-02T10:28:04.394Z,96503.6
2019-01-02T10:29:06.820Z,96503.2
2019-01-02T10:30:09.245Z,96500.9
2019-01-02T10:31:11.676Z,96501.9
2019-01-02T10:32:13.866Z,96502
2019-01-02T10:33:16.028Z,96503.8
2019-01-02T10:34:18.176Z,96499.5
2019-01-02T10:35:20.606Z,96496.7
2019-01-02T10:36:22.461Z,96492.6
2019-01-02T10:37:24.890Z,96496.2
2019-01-02T10:38:27.047Z,96497.7
2019-01-02T10:39:28.919Z,96496.4
2019-01-02T10:40:31.351Z,96495.7
2019-01-02T10:41:33.522Z,96497.4
2019-01-02T10:42:35.686Z,96487.4
2019-01-02T10:43:38.192Z,96491.6
2019-01-02T10:44:40.356Z,96489.8
2019-01-02T10:45:42.241Z,96491.9
2019-01-02T10:46:44.402Z,96493.2
2019-01-02T10:47:46.862Z,96491
2019-01-02T10:48:48.475Z,96487.8
2019-01-02T10:49:50.650Z,96501.2
2019-01-02T10:50:53.090Z,96495.1
2019-01-02T10:51:55.579Z,96499.6
2019-01-02T10:52:57.731Z,96499
2019-01-02T10:53:59.903Z,96494.9
2019-01-02T10:55:02.345Z,96493.2
2019-01-02T10:56:04.771Z,96496
2019-01-02T10:57:06.907Z,96490.6
2019-01-02T10:58:09.340Z,96485
2019-01-02T10:59:11.775Z,96478.6
2019-01-02T11:00:14.206Z,96478.3
2019-01-02T11:01:16.654Z,96471.1
2019-01-02T11:02:19.095Z,96470.7
2019-01-02T11:03:21.517Z,96470.2
2019-01-02T11:04:23.680Z,96471.1
2019-01-02T11:05:25.834Z,96472.8
2019-01-02T11:06:28.269Z,96468.9
2019-01-02T11:07:30.156Z,96472
2019-01-02T11:08:32.584Z,96474.5
2019-01-02T11:09:34.744Z,96473.6
2019-01-02T11:10:36.902Z,96479.9
2019-01-02T11:11:39.338Z,96472.4
2019-01-02T11:12:41.511Z,96482.3
2019-01-02T11:13:43.671Z,96475.5
2019-01-02T11:14:46.093Z,96470.9
2019-01-02T11:15:48.514Z,96474.5
2019-01-02T11:16:50.669Z,96477.3
2019-01-02T11:17:52.826Z,96469.1
2019-01-02T11:18:55.260Z,96468.1
2019-01-02T11:19:57.186Z,96458.9
2019-01-02T11:20:59.613Z,96462.3
2019-01-02T11:22:01.772Z,96463.4
2019-01-02T11:23:04.198Z,96464
2019-01-02T11:24:06.626Z,96459.8
2019-01-02T11:25:09.053Z,96463.2
2019-01-02T11:26:11.494Z,96461.6
2019-01-02T11:27:13.926Z,96461.1
2019-01-02T11:28:16.362Z,96448.3
2019-01-02T11:29:18.795Z,96461.1
2019-01-02T11:30:21.232Z,96446
2019-01-02T11:31:23.672Z,96441
2019-01-02T11:32:25.846Z,96439.8
2019-01-02T11:33:28.280Z,96436.2
2019-01-02T11:34:30.722Z,96438.3
2019-01-02T11:35:33.163Z,96438.8
2019-01-02T11:36:35.334Z,96437.5
2019-01-02T11:37:37.202Z,96437.9
2019-01-02T11:38:39.368Z,96436.4
2019-01-02T11:39:41.250Z,96431.6
2019-01-02T11:40:43.686Z,96429.9
2019-01-02T11:41:45.820Z,96425.6
2019-01-02T11:42:48.255Z,96420
2019-01-02T11:43:50.438Z,96423.4
2019-01-02T11:44:52.570Z,96417.7
2019-01-02T11:45:54.727Z,96416.1
2019-01-02T11:46:57.149Z,96415.7
2019-01-02T11:47:59.586Z,96414.1
2019-01-02T11:49:02.031Z,96414.2
2019-01-02T11:50:04.478Z,96414.5
2019-01-02T11:51:06.346Z,96412.1
2019-01-02T11:52:08.786Z,96409.9
2019-01-02T11:53:10.938Z,96395.1
2019-01-02T11:54:12.790Z,96403.2
2019-01-02T11:55:15.239Z,96407.6
2019-01-02T11:56:17.668Z,96399.8
2019-01-02T11:57:20.095Z,96399.2
2019-01-02T11:58:22.656Z,96391.9
2019-01-02T11:59:25.086Z,96386.3
2019-01-02T12:00:27.565Z,96382.4
2019-01-02T12:01:30.005Z,96387
2019-01-02T12:03:37.425Z,96391.4
2019-01-02T12:04:39.609Z,96391.6
2019-01-02T12:05:42.030Z,96387.8
2019-01-02T12:06:44.454Z,96387.4
2019-01-02T12:07:46.901Z,96384.6
2019-01-02T12:08:49.342Z,96380.2
2019-01-02T12:09:51.773Z,96383.3
2019-01-02T12:10:53.934Z,96389.3
2019-01-02T12:11:56.077Z,96388.4
2019-01-02T12:12:58.263Z,96387.7
2019-01-02T12:14:00.433Z,96385.1
2019-01-02T12:15:02.857Z,96388
2019-01-02T12:16:05.276Z,96389.3
2019-01-02T12:17:07.446Z,96382.2
2019-01-02T12:18:09.620Z,96380.7
2019-01-02T12:19:11.764Z,96378
2019-01-02T12:20:14.198Z,96377.9
2019-01-02T12:21:16.387Z,96377.5
2019-01-02T12:22:19.958Z,96375
2019-01-02T12:23:22.127Z,96370.7
2019-01-02T12:24:24.596Z,96367.3
2019-01-02T12:25:27.034Z,96370.4
2019-01-02T12:26:29.473Z,96374.4
2019-01-02T12:27:31.926Z,96380.6
2019-01-02T12:28:34.358Z,96382.2
2019-01-02T12:29:36.795Z,96379.4
2019-01-02T12:30:39.221Z,96377.5
2019-01-02T12:31:41.377Z,96379
2019-01-02T12:32:43.551Z,96380.5
2019-01-02T12:33:45.684Z,96378.9
2019-01-02T12:34:47.824Z,96369.1
2019-01-02T12:35:50.284Z,96371.9
2019-01-02T12:36:52.193Z,96372
2019-01-02T12:37:54.093Z,96379.3
2019-01-02T12:38:56.248Z,96375.9
2019-01-02T12:39:58.692Z,96368.1
2019-01-02T12:41:01.147Z,96367